Terminal Aerodrome Forecast
Issued by NWS Sterling, VA

Home | Current Version | Previous Version | Text Only | Print | Product List | Glossary On
Versions: 1 2 3 4 5 6 7 8 9 10 11 12 13 14 15 16 17 18 19 20 21 22 23 24 25 26 27
000
FTUS41 KLWX 051200 AAA
TAFDCA
TAF AMD
KDCA 051200Z 0512/0612 05009KT P6SM OVC012
      TEMPO 0512/0515 3SM -DZ BR BKN009 OVC015
     FM051700 03008KT P6SM OVC020
     FM060300 02007KT P6SM -SHRA OVC010=

USA.gov is the U.S. government's official web portal to all federal, state and local government web resources and services.